Time;durP1;ratioP1;P1;durP2;ratioP2;P2;SDS_P1;SDS_P2;PMS_P1;PMS_P2;Temp;Humidity;BMP_temperature;BMP_pressure;BME280_temperature;BME280_humidity;BME280_pressure;Samples;Min_cycle;Max_cycle;Signal;HPM_P1;HPM_P2
2022/09/06 00:02:14;;;;;;;4.82;3.13;;;;;;;19.26;75.19;101445.19;4901982;29;20095;-76
2022/09/06 00:04:39;;;;;;;7.00;3.10;;;;;;;19.24;77.02;101449.78;4909363;29;20051;-75
2022/09/06 00:07:05;;;;;;;6.25;3.40;;;;;;;19.17;77.70;101465.31;4899966;29;20092;-76
2022/09/06 00:09:30;;;;;;;5.13;3.30;;;;;;;19.13;79.29;101469.06;4896290;29;20035;-75
2022/09/06 00:11:55;;;;;;;4.75;3.15;;;;;;;19.15;80.21;101480.63;4915070;29;20396;-75
2022/09/06 00:14:21;;;;;;;5.05;3.22;;;;;;;19.16;79.17;101511.00;4915017;29;20097;-75
2022/09/06 00:16:46;;;;;;;6.80;3.78;;;;;;;19.10;81.48;101541.72;4907108;29;20036;-75
2022/09/06 00:19:12;;;;;;;7.07;3.90;;;;;;;18.98;80.65;101550.31;4914763;29;20043;-75
2022/09/06 00:21:37;;;;;;;7.97;3.40;;;;;;;18.87;78.21;101553.50;4885409;29;20083;-75
2022/09/06 00:24:03;;;;;;;5.88;3.65;;;;;;;18.79;81.69;101601.25;4900584;29;20496;-75
2022/09/06 00:26:28;;;;;;;4.80;3.20;;;;;;;18.76;80.96;101617.50;4880823;29;20041;-74
2022/09/06 00:28:54;;;;;;;8.82;3.60;;;;;;;18.58;81.02;101616.47;4897845;29;20063;-74
2022/09/06 00:31:23;;;;;;;6.38;3.80;;;;;;;18.50;80.84;101623.97;4894922;29;20208;-75
2022/09/06 00:33:49;;;;;;;5.05;3.67;;;;;;;18.45;81.88;101634.88;4889049;29;20051;-76
2022/09/06 00:36:16;;;;;;;8.70;4.28;;;;;;;18.42;82.26;101626.94;4912984;29;20032;-76
2022/09/06 00:38:41;;;;;;;13.55;4.78;;;;;;;18.42;81.42;101627.84;4911317;29;20055;-76
2022/09/06 00:41:09;;;;;;;6.70;4.25;;;;;;;18.37;81.55;101626.28;4905368;29;20032;-76
2022/09/06 00:43:35;;;;;;;9.70;4.40;;;;;;;18.38;81.96;101634.28;4912891;29;20041;-76
2022/09/06 00:46:02;;;;;;;8.98;4.28;;;;;;;18.30;81.73;101631.03;4899662;29;20036;-76
2022/09/06 00:48:28;;;;;;;6.95;4.38;;;;;;;18.26;82.19;101622.25;4916515;29;20035;-76
2022/09/06 00:50:59;;;;;;;10.20;4.47;;;;;;;18.27;83.38;101617.75;4901361;29;20047;-76
2022/09/06 00:53:25;;;;;;;7.70;4.50;;;;;;;18.28;83.30;101619.50;4901573;29;20036;-76
2022/09/06 00:55:52;;;;;;;9.93;4.97;;;;;;;18.27;82.96;101612.38;4901177;29;20044;-76
2022/09/06 00:58:17;;;;;;;6.65;4.53;;;;;;;18.29;82.34;101609.66;4904945;29;20511;-76
2022/09/06 01:00:46;;;;;;;8.10;4.38;;;;;;;18.27;83.08;101602.56;4904102;29;20044;-75
2022/09/06 01:03:12;;;;;;;7.85;3.80;;;;;;;18.29;80.28;101601.59;4901289;29;20131;-74
2022/09/06 01:05:42;;;;;;;6.32;4.53;;;;;;;18.29;82.78;101582.84;4913526;29;20100;-75
2022/09/06 01:08:23;;;;;;;6.00;4.55;;;;;;;18.31;83.72;101559.50;4910036;29;20455;-75
2022/09/06 01:10:53;;;;;;;7.78;4.35;;;;;;;18.36;84.44;101561.06;4917794;29;20075;-75
2022/09/06 01:13:33;;;;;;;;;;;;;;;18.52;79.41;101579.16;4918361;29;20047;-75
2022/09/06 01:16:22;;;;;;;6.45;4.63;;;;;;;18.48;81.24;101573.94;4913750;29;20050;-75
2022/09/06 01:19:25;;;;;;;7.70;4.50;;;;;;;18.50;83.14;101564.97;4909298;29;20044;-75
2022/09/06 01:22:04;;;;;;;6.68;4.80;;;;;;;18.50;83.58;101562.28;4887188;29;20041;-75
2022/09/06 01:24:54;;;;;;;8.00;4.90;;;;;;;18.53;82.89;101559.47;4903774;29;20119;-75
2022/09/06 01:27:38;;;;;;;8.15;4.85;;;;;;;18.57;82.62;101550.31;4900500;29;20028;-75
2022/09/06 01:30:10;;;;;;;7.78;4.97;;;;;;;18.55;83.15;101537.00;4916317;29;20346;-75
2022/09/06 01:32:59;;;;;;;9.38;5.22;;;;;;;18.55;83.43;101512.00;4917597;29;20083;-75
2022/09/06 01:35:39;;;;;;;9.80;4.75;;;;;;;18.55;84.19;101474.44;4884940;29;20044;-75
2022/09/06 01:38:07;;;;;;;9.55;5.50;;;;;;;18.50;84.46;101447.81;4912620;29;20040;-75
2022/09/06 01:40:35;;;;;;;7.43;5.03;;;;;;;18.40;84.88;101417.00;4892088;29;20042;-75
2022/09/06 01:43:07;;;;;;;8.68;5.70;;;;;;;18.30;85.61;101403.16;4917270;29;20095;-75
2022/09/06 01:46:03;;;;;;;7.32;4.75;;;;;;;18.29;84.01;101385.28;4899261;29;20036;-75
2022/09/06 01:49:04;;;;;;;7.07;4.47;;;;;;;18.31;82.88;101393.28;4887438;29;20032;-76
2022/09/06 01:51:41;;;;;;;10.13;5.07;;;;;;;18.27;83.71;101389.84;4915853;29;20397;-75
2022/09/06 01:54:19;;;;;;;10.23;5.38;;;;;;;18.25;85.03;101389.94;4900025;29;20046;-76
2022/09/06 01:57:03;;;;;;;9.13;4.93;;;;;;;18.27;83.62;101387.16;4899834;29;20127;-76
2022/09/06 01:59:56;;;;;;;7.00;5.05;;;;;;;18.23;85.07;101382.91;4917246;29;20118;-76
2022/09/06 02:03:01;;;;;;;9.90;4.90;;;;;;;18.26;83.08;101382.75;4906734;29;20040;-76
2022/09/06 02:05:45;;;;;;;5.47;4.50;;;;;;;18.26;82.59;101382.75;4886793;29;20028;-76
2022/09/06 02:08:19;;;;;;;6.00;4.65;;;;;;;18.24;84.25;101384.63;4899891;29;20161;-76
2022/09/06 02:10:46;;;;;;;5.90;4.53;;;;;;;18.24;83.87;101390.88;4909545;29;20119;-76
2022/09/06 02:13:15;;;;;;;11.32;4.85;;;;;;;18.23;84.51;101386.44;4904343;29;20101;-76
2022/09/06 02:15:50;;;;;;;5.28;4.03;;;;;;;18.27;83.45;101390.75;4902447;29;20040;-76
2022/09/06 02:18:23;;;;;;;9.20;4.70;;;;;;;18.26;83.87;101380.94;4900033;29;20040;-76
2022/09/06 02:20:56;;;;;;;5.60;4.45;;;;;;;18.28;84.23;101380.88;4880776;29;20045;-76
2022/09/06 02:23:25;;;;;;;8.50;5.00;;;;;;;18.27;83.72;101384.50;4908852;29;20051;-76
2022/09/06 02:25:56;;;;;;;7.22;4.60;;;;;;;18.24;83.33;101387.31;4880330;29;20369;-76
2022/09/06 02:28:21;;;;;;;7.22;4.53;;;;;;;18.28;82.20;101402.34;4908256;29;20036;-76
2022/09/06 02:30:57;;;;;;;6.60;4.70;;;;;;;18.27;82.89;101422.91;4910210;29;20119;-76
2022/09/06 02:33:27;;;;;;;8.43;5.38;;;;;;;18.26;84.93;101439.94;4903863;29;20599;-75
2022/09/06 02:35:54;;;;;;;7.45;5.15;;;;;;;18.16;84.18;101432.38;4916193;29;20043;-76
2022/09/06 02:38:25;;;;;;;7.35;5.05;;;;;;;18.09;84.75;101418.34;4909625;29;20048;-76
2022/09/06 02:40:52;;;;;;;7.80;5.32;;;;;;;18.07;84.28;101420.22;4893512;29;20048;-75
2022/09/06 02:43:18;;;;;;;9.05;4.95;;;;;;;18.08;83.74;101413.09;4899139;29;20028;-76
2022/09/06 02:45:43;;;;;;;6.43;4.50;;;;;;;18.09;83.64;101407.63;4916065;29;20131;-75
2022/09/06 02:48:09;;;;;;;10.27;4.97;;;;;;;18.06;84.62;101413.16;4899860;29;20044;-75
2022/09/06 02:50:35;;;;;;;7.70;4.63;;;;;;;17.99;84.56;101409.84;4899044;29;20068;-76
2022/09/06 02:53:08;;;;;;;6.57;4.53;;;;;;;17.95;83.61;101408.25;4898943;29;20055;-76
2022/09/06 02:55:33;;;;;;;7.70;5.03;;;;;;;17.95;85.61;101404.69;4914378;29;20114;-76
2022/09/06 02:57:59;;;;;;;6.57;5.40;;;;;;;17.94;84.98;101409.19;4915565;29;20062;-75
2022/09/06 03:00:25;;;;;;;7.03;5.22;;;;;;;17.95;87.10;101410.94;4892647;29;20036;-75
2022/09/06 03:02:51;;;;;;;11.38;5.72;;;;;;;17.91;84.62;101405.78;4876805;29;20044;-75
2022/09/06 03:05:17;;;;;;;6.50;4.85;;;;;;;17.93;84.04;101409.28;4897900;29;20143;-75
2022/09/06 03:07:42;;;;;;;5.97;5.03;;;;;;;17.92;86.99;101403.00;4890228;29;20044;-75
2022/09/06 03:10:08;;;;;;;9.20;5.07;;;;;;;17.91;86.42;101397.75;4895967;29;20076;-75
2022/09/06 03:12:34;;;;;;;7.82;4.90;;;;;;;17.90;86.02;101391.50;4887973;29;20416;-75
2022/09/06 03:14:59;;;;;;;6.65;5.13;;;;;;;17.94;85.17;101394.91;4915672;29;20131;-76
2022/09/06 03:17:25;;;;;;;6.40;4.88;;;;;;;17.97;86.34;101394.78;4897653;29;20032;-75
2022/09/06 03:19:50;;;;;;;6.43;5.18;;;;;;;17.97;86.81;101397.47;4903461;29;20488;-75
2022/09/06 03:22:15;;;;;;;6.40;5.32;;;;;;;17.95;86.09;101391.28;4884109;29;20016;-75
2022/09/06 03:24:41;;;;;;;7.20;5.10;;;;;;;17.92;85.40;101386.06;4879703;29;20131;-75
2022/09/06 03:27:06;;;;;;;7.00;5.40;;;;;;;17.91;86.01;101395.06;4882801;29;20067;-75
2022/09/06 03:29:32;;;;;;;7.90;5.03;;;;;;;17.86;84.53;101403.28;4898010;29;20060;-75
2022/09/06 03:31:57;;;;;;;5.97;5.30;;;;;;;17.82;86.67;101404.34;4915197;29;20056;-75
2022/09/06 03:34:23;;;;;;;8.20;5.25;;;;;;;17.80;85.89;101403.53;4910493;29;20040;-75
2022/09/06 03:36:48;;;;;;;8.68;5.13;;;;;;;17.80;85.35;101415.16;4882750;29;20091;-75
2022/09/06 03:39:14;;;;;;;7.70;5.60;;;;;;;17.79;84.63;101407.13;4914988;29;20135;-75
2022/09/06 03:41:39;;;;;;;8.70;5.75;;;;;;;17.75;84.76;101409.06;4909206;29;20025;-75
2022/09/06 03:44:04;;;;;;;8.75;5.95;;;;;;;17.70;87.62;101405.72;4891444;29;20178;-75
2022/09/06 03:46:30;;;;;;;7.60;5.30;;;;;;;17.66;87.42;101411.28;4898156;29;20040;-75
2022/09/06 03:48:57;;;;;;;6.88;5.63;;;;;;;17.59;86.66;101408.84;4904721;29;20044;-75
2022/09/06 03:51:22;;;;;;;6.47;5.55;;;;;;;17.55;86.25;101404.56;4897863;29;20044;-75
2022/09/06 03:53:51;;;;;;;11.32;6.03;;;;;;;17.54;86.73;101410.00;4913979;29;20047;-75
2022/09/06 03:56:16;;;;;;;8.65;5.35;;;;;;;17.49;86.05;101406.63;4897244;29;20051;-75
2022/09/06 03:58:42;;;;;;;7.90;5.38;;;;;;;17.45;84.50;101411.22;4901166;29;20488;-75
2022/09/06 04:01:10;;;;;;;7.45;5.35;;;;;;;17.37;84.96;101413.38;4915226;29;20528;-75
2022/09/06 04:03:36;;;;;;;9.35;5.70;;;;;;;17.31;83.55;101409.13;4897775;29;20031;-75
2022/09/06 04:06:03;;;;;;;8.75;5.43;;;;;;;17.29;85.12;101419.03;4894915;29;20049;-75
2022/09/06 04:08:28;;;;;;;7.20;5.80;;;;;;;17.23;84.94;101413.91;4909471;29;20028;-75
2022/09/06 04:10:55;;;;;;;8.15;5.70;;;;;;;17.22;84.18;101414.00;4876027;29;20050;-75
2022/09/06 04:13:22;;;;;;;8.20;5.30;;;;;;;17.22;84.69;101411.31;4917507;29;20183;-75
2022/09/06 04:15:48;;;;;;;8.82;5.50;;;;;;;17.15;85.85;101405.34;4877539;29;20044;-75
2022/09/06 04:18:14;;;;;;;8.60;5.32;;;;;;;17.09;86.23;101409.13;4916992;29;20043;-77
2022/09/06 04:20:40;;;;;;;6.47;5.38;;;;;;;17.05;85.43;101412.00;4918353;29;20051;-77
2022/09/06 04:23:06;;;;;;;11.00;6.15;;;;;;;17.02;88.57;101412.97;4901844;29;20044;-77
2022/09/06 04:25:31;;;;;;;12.63;6.47;;;;;;;17.02;89.17;101426.38;4888786;29;20112;-77
2022/09/06 04:27:57;;;;;;;10.95;6.63;;;;;;;17.05;88.11;101428.03;4903235;29;20026;-77
2022/09/06 04:30:22;;;;;;;9.43;6.75;;;;;;;17.04;88.83;101423.63;4909219;29;20584;-77
2022/09/06 04:32:48;;;;;;;10.48;5.90;;;;;;;17.02;87.19;101423.69;4901508;29;20404;-77
2022/09/06 04:35:13;;;;;;;6.45;5.72;;;;;;;17.02;86.45;101423.69;4907171;29;20127;-77
2022/09/06 04:37:39;;;;;;;10.88;6.00;;;;;;;17.02;86.85;101436.19;4918387;29;20075;-77
2022/09/06 04:40:05;;;;;;;9.52;6.22;;;;;;;17.01;88.00;101443.31;4918609;29;20041;-77
2022/09/06 04:42:31;;;;;;;12.55;7.10;;;;;;;16.95;88.95;101446.25;4901450;29;20123;-77
2022/09/06 04:44:56;;;;;;;8.15;6.70;;;;;;;16.89;87.65;101438.44;4904983;29;20165;-77
2022/09/06 04:47:22;;;;;;;7.72;5.85;;;;;;;16.87;87.21;101443.88;4918339;29;20472;-77
2022/09/06 04:49:48;;;;;;;10.88;7.15;;;;;;;16.86;88.62;101439.44;4904895;29;20115;-77
2022/09/06 04:52:14;;;;;;;9.45;6.15;;;;;;;16.83;87.18;101442.25;4917951;29;20084;-77
2022/09/06 04:54:40;;;;;;;8.40;6.40;;;;;;;16.77;87.87;101434.44;4918372;29;20044;-77
2022/09/06 04:57:05;;;;;;;13.18;6.72;;;;;;;16.77;87.68;101437.13;4904752;29;20040;-77
2022/09/06 04:59:31;;;;;;;15.68;6.80;;;;;;;16.71;86.34;101431.97;4918234;29;20127;-77
2022/09/06 05:01:57;;;;;;;6.72;5.88;;;;;;;16.71;86.77;101431.97;4900758;29;20096;-78
2022/09/06 05:04:23;;;;;;;8.20;6.57;;;;;;;16.69;87.45;101439.19;4907077;29;20096;-78
2022/09/06 05:06:48;;;;;;;8.27;6.70;;;;;;;16.65;88.27;101437.56;4898447;29;20028;-78
2022/09/06 05:09:14;;;;;;;10.02;6.32;;;;;;;16.61;88.16;101444.81;4907526;29;20086;-78
2022/09/06 05:11:39;;;;;;;12.77;7.20;;;;;;;16.56;88.65;101439.66;4912052;29;20492;-77
2022/09/06 05:14:05;;;;;;;10.27;6.72;;;;;;;16.52;88.10;101434.50;4892439;29;20045;-77
2022/09/06 05:16:30;;;;;;;8.85;6.35;;;;;;;16.46;88.01;101435.56;4916199;29;20135;-77
2022/09/06 05:18:56;;;;;;;10.40;6.53;;;;;;;16.42;87.08;101447.31;4916235;29;20404;-77
2022/09/06 05:21:21;;;;;;;16.70;6.70;;;;;;;16.41;86.56;101432.19;4900637;29;20099;-77
2022/09/06 05:23:47;;;;;;;20.42;6.95;;;;;;;16.43;87.52;101426.81;4914539;29;20033;-77
2022/09/06 05:26:12;;;;;;;13.32;6.65;;;;;;;16.45;87.00;101430.31;4916667;29;20048;-77
2022/09/06 05:28:38;;;;;;;13.48;7.72;;;;;;;16.46;89.88;101443.59;4900485;29;20115;-77
2022/09/06 05:31:23;;;;;;;12.38;7.25;;;;;;;16.49;88.66;101438.16;4901106;29;20412;-77
2022/09/06 05:33:50;;;;;;;10.43;7.40;;;;;;;16.49;89.83;101439.94;4909643;29;20055;-77
2022/09/06 05:36:15;;;;;;;11.70;7.05;;;;;;;16.52;89.60;101450.53;4917080;29;20040;-77
2022/09/06 05:38:42;;;;;;;14.68;7.85;;;;;;;16.51;90.62;101452.31;4881449;29;20048;-77
2022/09/06 05:41:07;;;;;;;9.55;6.85;;;;;;;16.53;88.11;101449.59;4880852;29;20092;-77
2022/09/06 05:43:33;;;;;;;9.75;7.50;;;;;;;16.55;89.62;101445.94;4900379;29;20040;-79
2022/09/06 05:45:58;;;;;;;11.52;7.72;;;;;;;16.59;90.80;101452.03;4900075;29;20040;-79
2022/09/06 05:48:24;;;;;;;10.15;7.93;;;;;;;16.63;89.82;101455.47;4899988;29;20034;-79
2022/09/06 05:51:04;;;;;;;10.07;7.50;;;;;;;16.69;89.33;101455.22;4900056;29;20433;-79
2022/09/06 05:53:34;;;;;;;10.75;7.85;;;;;;;16.72;89.03;101458.69;4916898;29;20051;-79
2022/09/06 05:56:00;;;;;;;12.05;8.23;;;;;;;16.78;88.98;101460.28;4899655;29;20119;-79
2022/09/06 05:58:25;;;;;;;10.85;7.68;;;;;;;16.83;88.24;101457.44;4886614;29;20441;-79
2022/09/06 06:00:50;;;;;;;10.35;7.60;;;;;;;16.87;88.63;101457.25;4899931;29;20044;-79
2022/09/06 06:03:16;;;;;;;10.52;7.60;;;;;;;16.90;89.28;101451.78;4897516;29;20059;-79
2022/09/06 06:05:46;;;;;;;10.57;8.20;;;;;;;16.93;87.69;101457.00;4905381;29;20051;-79
2022/09/06 06:08:11;;;;;;;13.52;7.95;;;;;;;16.97;87.85;101447.06;4916058;29;20044;-79
2022/09/06 06:10:38;;;;;;;9.60;7.60;;;;;;;17.07;88.56;101458.28;4904199;29;20497;-77
2022/09/06 06:13:03;;;;;;;14.65;9.00;;;;;;;17.07;89.03;101450.28;4893110;29;20509;-77
2022/09/06 06:15:31;;;;;;;11.82;8.43;;;;;;;17.12;88.74;101456.31;4900643;29;20041;-77
2022/09/06 06:17:56;;;;;;;9.68;8.35;;;;;;;17.17;88.70;101460.53;4890270;29;20052;-77
2022/09/06 06:20:22;;;;;;;14.57;9.20;;;;;;;17.23;89.98;101446.03;4899301;29;20127;-77
2022/09/06 06:22:47;;;;;;;17.40;9.45;;;;;;;17.29;89.01;101453.84;4899542;29;20111;-77
2022/09/06 06:25:13;;;;;;;10.80;8.35;;;;;;;17.33;87.95;101454.56;4899339;29;20044;-77
2022/09/06 06:27:38;;;;;;;11.02;8.55;;;;;;;17.40;88.60;101451.56;4916159;29;20478;-77
2022/09/06 06:30:04;;;;;;;9.95;8.93;;;;;;;17.48;87.81;101453.06;4899276;29;20079;-77
2022/09/06 06:32:29;;;;;;;10.05;7.28;;;;;;;17.56;87.86;101446.47;4915536;29;20044;-77
2022/09/06 06:34:55;;;;;;;11.45;9.02;;;;;;;17.66;88.27;101451.47;4883637;29;20036;-77
2022/09/06 06:37:20;;;;;;;16.85;8.23;;;;;;;17.71;87.43;101449.47;4899077;29;20044;-77
2022/09/06 06:39:46;;;;;;;13.20;8.45;;;;;;;17.77;86.65;101444.69;4910433;29;20143;-77
2022/09/06 06:42:12;;;;;;;11.35;8.05;;;;;;;17.84;86.65;101438.19;4890544;29;20048;-77
2022/09/06 06:44:52;;;;;;;10.20;8.05;;;;;;;17.91;86.39;101435.25;4897485;29;20170;-77
2022/09/06 06:47:18;;;;;;;11.98;7.57;;;;;;;17.93;85.43;101433.38;4899284;29;20043;-77
2022/09/06 06:49:44;;;;;;;9.95;7.45;;;;;;;17.94;85.38;101438.66;4867256;29;20524;-77
2022/09/06 06:52:09;;;;;;;10.80;7.20;;;;;;;17.97;84.12;101443.88;4903793;29;20052;-77
2022/09/06 06:54:36;;;;;;;13.23;7.90;;;;;;;17.99;84.92;101446.50;4915514;29;20084;-77
2022/09/06 06:57:04;;;;;;;11.32;7.47;;;;;;;18.04;85.97;101434.63;4915824;29;20046;-77
2022/09/06 06:59:30;;;;;;;9.95;8.18;;;;;;;18.13;84.03;101444.09;4903162;29;20176;-77
2022/09/06 07:01:56;;;;;;;12.68;7.90;;;;;;;18.21;84.40;101438.41;4895559;29;20140;-77
2022/09/06 07:04:21;;;;;;;11.20;7.65;;;;;;;18.28;84.49;101439.88;4898612;29;20028;-77
2022/09/06 07:06:50;;;;;;;9.00;7.05;;;;;;;18.39;85.17;101444.75;4895683;29;20040;-77
2022/09/06 07:09:18;;;;;;;10.13;6.88;;;;;;;18.40;83.54;101442.00;4873191;29;20036;-77
2022/09/06 07:11:43;;;;;;;9.50;6.72;;;;;;;18.47;82.68;101442.56;4898277;29;20102;-77
2022/09/06 07:14:09;;;;;;;12.57;8.00;;;;;;;18.57;84.03;101435.88;4898449;29;20052;-77
2022/09/06 07:16:34;;;;;;;11.57;7.28;;;;;;;18.67;83.64;101434.50;4907918;29;20040;-76
2022/09/06 07:19:00;;;;;;;12.50;7.55;;;;;;;18.73;81.70;101427.13;4915151;29;20468;-76
2022/09/06 07:21:25;;;;;;;14.10;7.75;;;;;;;18.79;82.36;101426.84;4904229;29;20044;-77
2022/09/06 07:23:52;;;;;;;11.02;7.00;;;;;;;18.86;80.75;101421.13;4909573;29;20476;-76
2022/09/06 07:26:23;;;;;;;11.05;7.95;;;;;;;18.94;81.37;101428.84;4898314;29;20036;-76
2022/09/06 07:28:53;;;;;;;10.88;7.97;;;;;;;19.01;81.52;101424.03;4897996;29;20417;-76
2022/09/06 07:31:19;;;;;;;12.38;7.18;;;;;;;19.12;80.91;101427.06;4910151;29;20504;-77
2022/09/06 07:33:45;;;;;;;10.93;7.93;;;;;;;19.21;80.31;101431.13;4907002;29;20036;-76
2022/09/06 07:36:10;;;;;;;14.98;7.93;;;;;;;19.28;80.32;101430.72;4897962;29;20419;-76
2022/09/06 07:38:36;;;;;;;12.85;7.03;;;;;;;19.39;80.87;101432.06;4914949;29;20040;-77
2022/09/06 07:41:04;;;;;;;8.35;7.50;;;;;;;19.52;80.18;101441.22;4909593;29;20032;-76
2022/09/06 07:43:31;;;;;;;8.70;7.65;;;;;;;19.59;79.16;101439.97;4907279;29;20400;-77
2022/09/06 07:46:01;;;;;;;13.20;7.70;;;;;;;19.66;79.46;101435.19;4901820;29;20400;-77
2022/09/06 07:48:29;;;;;;;;;;;;;;;19.74;78.38;101439.22;4915487;29;20036;-77
2022/09/06 07:50:54;;;;;;;10.35;6.80;;;;;;;19.83;77.62;101432.53;4914988;29;19915;-77
2022/09/06 07:53:20;;;;;;;10.95;5.97;;;;;;;19.92;74.50;101426.66;4898153;29;20601;-77
2022/09/06 07:55:45;;;;;;;11.30;6.50;;;;;;;20.06;77.05;101443.91;4914853;29;20047;-77
2022/09/06 07:58:11;;;;;;;10.18;6.03;;;;;;;20.20;77.66;101435.97;4914975;29;20047;-77
2022/09/06 08:00:39;;;;;;;12.07;6.55;;;;;;;20.33;76.74;101428.16;4898049;29;20040;-77
2022/09/06 08:03:05;;;;;;;7.15;5.68;;;;;;;20.43;74.10;101420.44;4884677;29;20045;-77
2022/09/06 08:05:30;;;;;;;10.18;5.70;;;;;;;20.54;74.87;101421.59;4868388;29;20363;-77
2022/09/06 08:07:56;;;;;;;11.85;6.35;;;;;;;20.71;74.78;101419.84;4908228;29;20373;-77
2022/09/06 08:10:21;;;;;;;6.50;5.30;;;;;;;20.80;73.42;101414.81;4882191;29;20508;-77
2022/09/06 08:12:47;;;;;;;10.38;5.13;;;;;;;20.91;73.38;101414.19;4915064;29;20068;-77
2022/09/06 08:15:12;;;;;;;14.93;5.38;;;;;;;21.04;72.88;101411.69;4898149;29;20078;-77
2022/09/06 08:17:37;;;;;;;6.88;5.13;;;;;;;21.19;72.31;101415.31;4882387;29;20048;-77
2022/09/06 08:20:03;;;;;;;9.98;5.43;;;;;;;21.29;69.75;101410.28;4914780;29;20052;-77
2022/09/06 08:22:32;;;;;;;9.18;4.65;;;;;;;21.40;69.28;101407.88;4897771;29;20035;-77
2022/09/06 08:24:58;;;;;;;6.65;4.40;;;;;;;21.51;69.50;101408.09;4882365;29;20122;-77
2022/09/06 08:27:24;;;;;;;10.48;5.03;;;;;;;21.45;68.59;101412.03;4882365;29;20588;-78
2022/09/06 08:29:50;;;;;;;7.82;4.35;;;;;;;21.51;67.74;101409.94;4882349;29;20527;-78
2022/09/06 08:32:18;;;;;;;8.18;4.13;;;;;;;21.64;68.31;101402.88;4914737;29;20123;-78
2022/09/06 08:34:43;;;;;;;10.18;4.40;;;;;;;21.80;67.53;101400.97;4886009;29;20492;-79
2022/09/06 08:37:09;;;;;;;7.75;4.25;;;;;;;21.90;66.77;101406.69;4897834;29;20134;-79
2022/09/06 08:39:34;;;;;;;7.80;4.60;;;;;;;21.94;66.51;101418.19;4910648;29;20044;-79
2022/09/06 08:42:04;;;;;;;8.23;4.20;;;;;;;22.06;66.97;101415.59;4887578;29;20082;-79
2022/09/06 08:44:42;;;;;;;11.30;4.25;;;;;;;22.06;67.16;101417.44;4914394;29;20091;-79
2022/09/06 08:47:09;;;;;;;8.25;4.57;;;;;;;22.19;66.31;101409.44;4882277;29;20127;-79
2022/09/06 08:49:52;;;;;;;5.57;3.78;;;;;;;22.28;65.41;101400.84;4912975;29;20087;-78
2022/09/06 08:52:56;;;;;;;11.30;3.78;;;;;;;22.43;65.94;101401.72;4895689;29;20140;-79
2022/09/06 08:55:26;;;;;;;6.75;3.85;;;;;;;22.59;64.24;101407.00;4889899;29;20028;-79
2022/09/06 08:58:09;;;;;;;5.63;3.53;;;;;;;22.77;65.64;101403.09;4905269;29;20032;-79
2022/09/06 09:00:36;;;;;;;7.53;3.60;;;;;;;22.93;65.25;101403.00;4889935;29;20032;-80
2022/09/06 09:03:11;;;;;;;7.07;3.00;;;;;;;23.03;62.56;101403.31;4917752;29;20052;-79
2022/09/06 09:05:40;;;;;;;4.95;2.15;;;;;;;23.13;61.04;101413.41;4904851;29;20047;-79
2022/09/06 09:08:31;;;;;;;4.45;2.00;;;;;;;23.19;60.32;101409.41;4901155;29;20044;-79
2022/09/06 09:11:01;;;;;;;5.10;2.17;;;;;;;23.18;59.48;101408.56;4906576;29;20072;-79
2022/09/06 09:13:34;;;;;;;3.33;1.88;;;;;;;23.25;59.68;101402.75;4899309;29;20062;-79
2022/09/06 09:15:59;;;;;;;4.18;2.10;;;;;;;23.29;59.40;101399.72;4905256;29;20048;-79
2022/09/06 09:18:29;;;;;;;5.38;2.35;;;;;;;23.39;59.47;101399.97;4908916;29;20040;-79
2022/09/06 09:20:57;;;;;;;5.60;2.60;;;;;;;23.45;58.85;101396.03;4917848;29;20047;-79
2022/09/06 09:23:22;;;;;;;7.30;2.47;;;;;;;23.53;59.18;101393.66;4900750;29;20400;-79
2022/09/06 09:25:51;;;;;;;4.43;2.55;;;;;;;23.68;59.10;101397.16;4917490;29;20044;-79
2022/09/06 09:28:20;;;;;;;7.32;2.40;;;;;;;23.76;59.08;101394.81;4905180;29;20036;-79
2022/09/06 09:30:54;;;;;;;4.13;2.38;;;;;;;23.94;58.80;101395.41;4917523;29;20048;-79
2022/09/06 09:33:26;;;;;;;4.95;2.20;;;;;;;24.03;58.63;101395.63;4917670;29;20119;-79
2022/09/06 09:35:52;;;;;;;9.27;2.78;;;;;;;24.17;57.54;101410.03;4904054;29;20043;-79
2022/09/06 09:38:27;;;;;;;5.63;2.63;;;;;;;24.18;57.50;101401.81;4917551;29;20028;-79
2022/09/06 09:41:02;;;;;;;10.40;3.00;;;;;;;24.20;58.46;101407.09;4900458;29;20461;-79
2022/09/06 09:43:32;;;;;;;4.88;2.50;;;;;;;24.35;57.71;101410.56;4905532;29;20043;-79
2022/09/06 09:46:21;;;;;;;9.25;2.72;;;;;;;24.46;58.34;101400.75;4885015;29;20048;-79
2022/09/06 09:49:00;;;;;;;4.95;2.60;;;;;;;24.60;57.17;101404.28;4905724;29;20066;-79
2022/09/06 09:51:26;;;;;;;3.28;2.10;;;;;;;24.62;56.97;101402.34;4917446;29;21362;-79
2022/09/06 09:53:57;;;;;;;3.33;2.25;;;;;;;24.68;56.75;101400.06;4900209;29;20035;-80
2022/09/06 09:56:46;;;;;;;4.90;2.30;;;;;;;24.84;56.91;101394.38;4900372;29;20484;-79
2022/09/06 09:59:19;;;;;;;4.50;2.53;;;;;;;24.90;55.40;101390.38;4917166;29;20392;-79
2022/09/06 10:01:44;;;;;;;4.57;2.50;;;;;;;25.05;57.00;101393.78;4900503;29;20051;-79
2022/09/06 10:04:15;;;;;;;5.63;2.63;;;;;;;25.14;55.65;101390.38;4898282;29;20044;-79
2022/09/06 10:06:41;;;;;;;4.55;2.50;;;;;;;25.21;55.46;101390.81;4910177;29;20055;-79
2022/09/06 10:09:29;;;;;;;7.82;2.30;;;;;;;25.39;55.23;101386.72;4888081;29;20028;-79
2022/09/06 10:11:58;;;;;;;6.68;2.65;;;;;;;25.46;53.63;101390.69;4899888;29;20047;-79
2022/09/06 10:14:38;;;;;;;7.00;2.47;;;;;;;25.52;53.59;101400.22;4884378;29;20076;-79
2022/09/06 10:17:04;;;;;;;3.72;2.30;;;;;;;25.47;53.33;101395.16;4915552;29;20505;-79
2022/09/06 10:19:41;;;;;;;6.70;2.75;;;;;;;25.33;53.34;101405.31;4899785;29;20036;-79
2022/09/06 10:22:23;;;;;;;4.50;2.50;;;;;;;25.42;54.29;101400.06;4916539;29;20369;-79
2022/09/06 10:25:01;;;;;;;5.88;2.50;;;;;;;25.55;54.50;101413.56;4899660;29;20035;-79
2022/09/06 10:27:27;;;;;;;7.03;2.95;;;;;;;25.58;53.04;101412.44;4916709;29;20032;-79
2022/09/06 10:30:04;;;;;;;12.02;3.10;;;;;;;25.60;52.68;101424.91;4916479;29;20066;-79
2022/09/06 10:32:48;;;;;;;10.55;3.10;;;;;;;25.54;53.02;101411.81;4903245;29;20045;-79
2022/09/06 10:35:23;;;;;;;7.68;3.20;;;;;;;25.71;53.70;101419.50;4905322;29;20400;-79
2022/09/06 10:37:55;;;;;;;5.55;3.10;;;;;;;25.95;53.32;101419.50;4886824;29;20140;-79
2022/09/06 10:40:29;;;;;;;5.03;3.00;;;;;;;26.11;54.30;101405.63;4916846;29;20036;-79
2022/09/06 10:42:58;;;;;;;9.27;3.00;;;;;;;26.26;53.99;101410.81;4916193;29;20092;-79
2022/09/06 10:45:47;;;;;;;5.20;3.17;;;;;;;26.26;52.85;101403.53;4899464;29;20415;-79
2022/09/06 10:48:24;;;;;;;8.68;2.90;;;;;;;26.54;52.95;101399.50;4912016;29;20088;-79
2022/09/06 10:51:17;;;;;;;5.32;2.90;;;;;;;26.87;51.97;101402.31;4897152;29;20507;-79
2022/09/06 10:53:52;;;;;;;8.68;3.08;;;;;;;27.05;51.51;101394.50;4887746;29;20044;-79
2022/09/06 10:56:36;;;;;;;7.50;3.33;;;;;;;27.00;50.34;101392.16;4915730;29;20047;-79
2022/09/06 10:59:07;;;;;;;7.78;3.80;;;;;;;26.88;49.89;101391.34;4915933;29;20039;-79
2022/09/06 11:01:53;;;;;;;5.18;3.60;;;;;;;26.66;50.33;101399.53;4902958;29;20032;-79
2022/09/06 11:04:30;;;;;;;8.02;3.30;;;;;;;26.67;53.72;101393.94;4915836;29;20103;-78
2022/09/06 11:06:59;;;;;;;6.50;3.72;;;;;;;26.53;50.87;101400.50;4903612;29;20044;-78
2022/09/06 11:09:36;;;;;;;9.43;3.83;;;;;;;26.48;50.59;101399.97;4908394;29;20044;-79
2022/09/06 11:12:25;;;;;;;10.85;3.80;;;;;;;26.58;49.80;101411.88;4896558;29;20312;-78
2022/09/06 11:14:51;;;;;;;9.32;3.90;;;;;;;26.55;49.25;101406.66;4866275;29;20088;-79
2022/09/06 11:17:40;;;;;;;9.32;2.88;;;;;;;26.79;50.84;101408.38;4882653;29;20044;-78
2022/09/06 11:20:40;;;;;;;7.00;3.63;;;;;;;26.84;49.71;101414.31;4892836;29;20032;-78
2022/09/06 11:23:24;;;;;;;9.23;3.50;;;;;;;26.74;49.30;101414.19;4893121;29;20039;-78
2022/09/06 11:26:04;;;;;;;6.80;3.10;;;;;;;26.73;49.89;101423.34;4915431;29;20090;-79
2022/09/06 11:28:34;;;;;;;5.90;2.88;;;;;;;26.98;49.90;101422.22;4915524;29;20063;-79
2022/09/06 11:31:02;;;;;;;9.23;3.20;;;;;;;27.08;48.74;101426.84;4902007;29;20059;-78
2022/09/06 11:33:30;;;;;;;6.03;3.28;;;;;;;26.89;47.74;101428.38;4915478;29;20369;-79
2022/09/06 11:36:33;;;;;;;7.32;3.10;;;;;;;27.20;49.62;101425.88;4908287;29;20064;-78
2022/09/06 11:39:01;;;;;;;6.25;3.13;;;;;;;27.47;47.64;101430.00;4899320;29;20497;-78